Time;durP1;ratioP1;P1;durP2;ratioP2;P2;SDS_P1;SDS_P2;PMS_P1;PMS_P2;Temp;Humidity;BMP_temperature;BMP_pressure;BME280_temperature;BME280_humidity;BME280_pressure;Samples;Min_cycle;Max_cycle;Signal;HPM_P1;HPM_P2
2022/09/04 00:02:23;;;;;;;12.38;6.20;;;;;;;-147.76;100.00;60361.69;5115742;28;20050;-72
2022/09/04 00:04:57;;;;;;;14.27;6.15;;;;;;;-147.76;100.00;60361.69;5115318;28;20456;-71
2022/09/04 00:07:28;;;;;;;12.48;6.32;;;;;;;-147.76;100.00;60361.69;5115824;28;20054;-74
2022/09/04 00:10:08;;;;;;;10.40;5.50;;;;;;;-147.76;100.00;60361.69;5111342;28;20044;-74
2022/09/04 00:12:42;;;;;;;14.13;6.10;;;;;;;-147.76;100.00;60361.69;5094771;28;20056;-75
2022/09/04 00:15:13;;;;;;;10.63;5.93;;;;;;;-147.76;100.00;60361.69;5096061;28;20062;-72
2022/09/04 00:17:47;;;;;;;12.27;5.95;;;;;;;-147.76;100.00;60361.69;5094472;28;20052;-75
2022/09/04 00:20:28;;;;;;;12.07;6.03;;;;;;;-147.76;100.00;60361.69;5094276;28;20052;-74
2022/09/04 00:23:00;;;;;;;12.00;5.90;;;;;;;-147.76;100.00;60361.69;5094531;28;20044;-74
2022/09/04 00:25:33;;;;;;;11.45;6.07;;;;;;;-147.76;100.00;60361.69;5095039;28;20040;-74
2022/09/04 00:28:04;;;;;;;11.07;5.72;;;;;;;-147.76;100.00;60361.69;5095005;28;20062;-74
2022/09/04 00:30:32;;;;;;;12.55;6.03;;;;;;;-147.76;100.00;60361.69;5096022;28;20048;-72
2022/09/04 00:33:04;;;;;;;11.15;6.22;;;;;;;-147.76;100.00;60361.69;5094121;28;20040;-73
2022/09/04 00:35:35;;;;;;;13.10;6.32;;;;;;;-147.76;100.00;60361.69;5094514;28;20436;-75
2022/09/04 00:38:06;;;;;;;13.70;6.70;;;;;;;-147.76;100.00;60361.69;5095186;28;20039;-75
2022/09/04 00:40:36;;;;;;;11.45;5.72;;;;;;;-147.76;100.00;60361.69;5115688;28;20048;-75
2022/09/04 00:43:27;;;;;;;12.38;6.30;;;;;;;-147.76;100.00;60361.69;5114319;27;20047;-70
2022/09/04 00:46:12;;;;;;;12.40;5.63;;;;;;;-147.76;100.00;60361.69;5110465;28;20495;-70
2022/09/04 00:49:18;;;;;;;11.38;5.40;;;;;;;-147.76;100.00;60361.69;5115260;27;20048;-69
2022/09/04 00:51:54;;;;;;;12.52;6.15;;;;;;;-147.76;100.00;60361.69;5022035;28;20053;-68
2022/09/04 00:54:40;;;;;;;11.88;5.47;;;;;;;-147.76;100.00;60361.69;5031868;28;20050;-70
2022/09/04 00:57:49;;;;;;;12.43;5.65;;;;;;;-147.76;100.00;60361.69;5031627;28;20495;-72
2022/09/04 01:00:18;;;;;;;10.23;4.65;;;;;;;-147.76;100.00;60361.69;5031577;28;20049;-70
2022/09/04 01:03:09;;;;;;;10.20;4.93;;;;;;;-147.76;100.00;60361.69;5031252;28;20064;-70
2022/09/04 01:05:50;;;;;;;10.95;5.20;;;;;;;-147.76;100.00;60361.69;5031415;28;20061;-68
2022/09/04 01:08:28;;;;;;;11.05;5.30;;;;;;;-147.76;100.00;60361.69;5031437;28;20108;-70
2022/09/04 01:11:05;;;;;;;9.98;5.10;;;;;;;-147.76;100.00;60361.69;5024957;28;20076;-70
2022/09/04 01:13:40;;;;;;;11.82;5.50;;;;;;;-147.76;100.00;60361.69;5012305;28;20049;-69
2022/09/04 01:16:12;;;;;;;12.95;5.15;;;;;;;-147.76;100.00;60361.69;5012271;28;20054;-70
2022/09/04 01:18:45;;;;;;;11.07;5.05;;;;;;;-147.76;100.00;60361.69;5012751;28;20092;-70
2022/09/04 01:21:29;;;;;;;10.73;5.13;;;;;;;-147.76;100.00;60361.69;5012591;28;20064;-73
2022/09/04 01:24:11;;;;;;;9.70;4.80;;;;;;;-147.76;100.00;60361.69;5012318;28;20133;-74
2022/09/04 01:26:47;;;;;;;10.85;5.10;;;;;;;-147.76;100.00;60361.69;5012486;28;20045;-70
2022/09/04 01:29:23;;;;;;;10.77;5.00;;;;;;;-147.76;100.00;60361.69;5079931;28;20083;-71
2022/09/04 01:31:57;;;;;;;10.85;4.60;;;;;;;-147.76;100.00;60361.69;5094637;28;20043;-74
2022/09/04 01:34:37;;;;;;;11.48;5.00;;;;;;;-147.76;100.00;60361.69;5095204;28;20506;-70
2022/09/04 01:37:16;;;;;;;9.05;4.68;;;;;;;-147.76;100.00;60361.69;5093423;28;20044;-69
2022/09/04 01:39:49;;;;;;;11.77;4.65;;;;;;;-147.76;100.00;60361.69;5109394;28;20052;-70
2022/09/04 01:42:24;;;;;;;10.93;5.68;;;;;;;-147.76;100.00;60361.69;5113894;27;20043;-73
2022/09/04 01:44:51;;;;;;;10.93;5.38;;;;;;;-147.76;100.00;60361.69;5114162;28;20496;-74
2022/09/04 01:47:23;;;;;;;15.75;5.68;;;;;;;-147.76;100.00;60361.69;5134036;27;20511;-68
2022/09/04 01:49:57;;;;;;;10.48;5.47;;;;;;;-147.76;100.00;60361.69;5135848;27;20100;-69
2022/09/04 01:52:37;;;;;;;10.23;5.40;;;;;;;-147.76;100.00;60361.69;5136095;27;20051;-70
2022/09/04 01:55:14;;;;;;;11.18;5.43;;;;;;;-147.76;100.00;60361.69;5133682;27;20461;-72
2022/09/04 01:57:55;;;;;;;10.52;5.38;;;;;;;-147.76;100.00;60361.69;5135932;27;20074;-72
2022/09/04 02:00:23;;;;;;;11.68;5.65;;;;;;;-147.76;100.00;60361.69;5134301;27;20051;-69
2022/09/04 02:02:56;;;;;;;12.57;5.90;;;;;;;-147.76;100.00;60361.69;5133799;27;20416;-72
2022/09/04 02:05:30;;;;;;;11.75;5.60;;;;;;;-147.76;100.00;60361.69;5134694;27;20070;-73
2022/09/04 02:08:05;;;;;;;11.35;5.47;;;;;;;-147.76;100.00;60361.69;5134687;27;20047;-70
2022/09/04 02:10:37;;;;;;;11.65;5.43;;;;;;;-147.76;100.00;60361.69;5135175;27;20118;-71
2022/09/04 02:13:15;;;;;;;10.35;5.20;;;;;;;-147.76;100.00;60361.69;5115002;27;20048;-73
2022/09/04 02:15:51;;;;;;;10.75;5.20;;;;;;;-147.76;100.00;60361.69;5113567;28;20043;-73
2022/09/04 02:18:25;;;;;;;13.73;5.30;;;;;;;-147.76;100.00;60361.69;5113681;28;20043;-76
2022/09/04 02:20:58;;;;;;;10.48;5.13;;;;;;;-147.76;100.00;60361.69;5113626;28;20462;-71
2022/09/04 02:23:31;;;;;;;10.48;5.13;;;;;;;-147.76;100.00;60361.69;5113677;28;20047;-76
2022/09/04 02:26:05;;;;;;;9.73;4.95;;;;;;;-147.76;100.00;60361.69;5114278;28;20087;-72
2022/09/04 02:28:42;;;;;;;10.75;6.13;;;;;;;-147.76;100.00;60361.69;5114623;28;20044;-72
2022/09/04 02:31:16;;;;;;;9.85;5.05;;;;;;;-147.76;100.00;60361.69;5114817;28;20040;-72
2022/09/04 02:33:48;;;;;;;9.05;4.38;;;;;;;-147.76;100.00;60361.69;5118872;28;20047;-75
2022/09/04 02:36:21;;;;;;;11.10;4.65;;;;;;;-147.76;100.00;60361.69;5116756;28;20043;-69
2022/09/04 02:38:55;;;;;;;9.90;4.80;;;;;;;-147.76;100.00;60361.69;5117139;28;20050;-75
2022/09/04 02:41:28;;;;;;;10.13;4.63;;;;;;;-147.76;100.00;60361.69;5117453;27;20381;-71
2022/09/04 02:44:19;;;;;;;12.40;5.18;;;;;;;-147.76;100.00;60361.69;5118215;27;20055;-75
2022/09/04 02:46:56;;;;;;;12.52;5.13;;;;;;;-147.76;100.00;60361.69;5116411;27;20051;-74
2022/09/04 02:49:33;;;;;;;11.10;5.15;;;;;;;-147.76;100.00;60361.69;5137794;27;20104;-70
2022/09/04 02:52:07;;;;;;;10.93;5.72;;;;;;;-147.76;100.00;60361.69;5138004;27;20103;-69
2022/09/04 02:54:47;;;;;;;13.10;6.15;;;;;;;-147.76;100.00;60361.69;5138507;27;20047;-74
2022/09/04 02:57:28;;;;;;;11.25;6.20;;;;;;;-147.76;100.00;60361.69;5138531;27;20050;-72
2022/09/04 03:00:05;;;;;;;11.77;6.03;;;;;;;-147.76;100.00;60361.69;5138381;27;20403;-70
2022/09/04 03:02:36;;;;;;;12.23;6.20;;;;;;;-147.76;100.00;60361.69;5136790;27;20488;-71
2022/09/04 03:05:08;;;;;;;11.90;5.72;;;;;;;-147.76;100.00;60361.69;5137145;27;20066;-70
2022/09/04 03:07:38;;;;;;;11.18;5.90;;;;;;;-147.76;100.00;60361.69;5137070;27;20050;-75
2022/09/04 03:10:10;;;;;;;11.80;5.68;;;;;;;-147.76;100.00;60361.69;5136712;27;20516;-70
2022/09/04 03:12:42;;;;;;;10.85;5.90;;;;;;;-147.76;100.00;60361.69;5125829;27;20154;-76
2022/09/04 03:15:18;;;;;;;10.98;5.75;;;;;;;-147.76;100.00;60361.69;5117697;28;20062;-76
2022/09/04 03:17:50;;;;;;;11.27;5.40;;;;;;;-147.76;100.00;60361.69;5116062;27;20408;-75
2022/09/04 03:20:22;;;;;;;12.07;5.68;;;;;;;-147.76;100.00;60361.69;5115539;28;20052;-76
2022/09/04 03:22:54;;;;;;;12.45;6.05;;;;;;;-147.76;100.00;60361.69;5116644;28;20043;-74
2022/09/04 03:25:51;;;;;;;10.80;5.75;;;;;;;-147.76;100.00;60361.69;5116512;28;20047;-76
2022/09/04 03:28:26;;;;;;;12.23;5.90;;;;;;;-147.76;100.00;60361.69;5115988;28;20054;-71
2022/09/04 03:30:57;;;;;;;11.32;5.72;;;;;;;-147.76;100.00;60361.69;5116012;28;20484;-76
2022/09/04 03:33:30;;;;;;;11.27;5.70;;;;;;;-147.76;100.00;60361.69;5116658;28;20067;-71
2022/09/04 03:36:01;;;;;;;10.77;5.70;;;;;;;-147.76;100.00;60361.69;5116696;28;20039;-76
2022/09/04 03:38:35;;;;;;;13.00;6.07;;;;;;;-147.76;100.00;60361.69;5115444;28;20043;-73
2022/09/04 03:41:10;;;;;;;13.20;6.28;;;;;;;-147.76;100.00;60361.69;5115504;28;20100;-76
2022/09/04 03:43:46;;;;;;;11.48;5.88;;;;;;;-147.76;100.00;60361.69;5115577;27;20073;-70
2022/09/04 03:46:24;;;;;;;15.35;6.40;;;;;;;-147.76;100.00;60361.69;5118123;27;20044;-74
2022/09/04 03:49:12;;;;;;;12.20;6.40;;;;;;;-147.76;100.00;60361.69;5136256;27;20047;-74
2022/09/04 03:51:48;;;;;;;11.88;6.40;;;;;;;-147.76;100.00;60361.69;5135885;27;20063;-76
2022/09/04 03:54:27;;;;;;;11.27;5.72;;;;;;;-147.76;100.00;60361.69;5136318;27;20035;-74
2022/09/04 03:57:28;;;;;;;11.52;5.82;;;;;;;-147.76;100.00;60361.69;5136032;27;20518;-75
2022/09/04 04:00:04;;;;;;;12.32;6.47;;;;;;;-147.76;100.00;60361.69;5137134;27;20047;-76
2022/09/04 04:02:47;;;;;;;13.18;6.43;;;;;;;-147.76;100.00;60361.69;5137092;27;20407;-75
2022/09/04 04:05:35;;;;;;;12.82;6.00;;;;;;;-147.76;100.00;60361.69;5135134;27;20043;-75
2022/09/04 04:08:46;;;;;;;9.80;4.80;;;;;;;-147.76;100.00;60361.69;5136576;27;20066;-75
2022/09/04 04:11:31;;;;;;;10.75;5.00;;;;;;;-147.76;100.00;60361.69;5072474;28;20052;-76
2022/09/04 04:14:28;;;;;;;9.60;4.68;;;;;;;-147.76;100.00;60361.69;5057061;28;20049;-75
2022/09/04 04:17:08;;;;;;;11.30;5.85;;;;;;;-147.76;100.00;60361.69;5052379;28;20418;-75
2022/09/04 04:19:46;;;;;;;11.88;6.40;;;;;;;-147.76;100.00;60361.69;5052183;28;20124;-76
2022/09/04 04:22:29;;;;;;;13.18;5.88;;;;;;;-147.76;100.00;60361.69;5052671;28;20057;-70
2022/09/04 04:25:23;;;;;;;11.43;5.90;;;;;;;-147.76;100.00;60361.69;5052278;28;20434;-71
2022/09/04 04:28:11;;;;;;;11.70;5.88;;;;;;;-147.76;100.00;60361.69;5053427;28;20056;-76
2022/09/04 04:30:47;;;;;;;11.18;5.82;;;;;;;-147.76;100.00;60361.69;5052901;28;20048;-75
2022/09/04 04:33:31;;;;;;;12.85;6.20;;;;;;;-147.76;100.00;60361.69;5052983;28;20049;-75
2022/09/04 04:36:05;;;;;;;13.23;6.20;;;;;;;-147.76;100.00;60361.69;5053004;28;20056;-75
2022/09/04 04:38:46;;;;;;;10.30;5.60;;;;;;;-147.76;100.00;60361.69;5053095;28;20501;-76
2022/09/04 04:41:30;;;;;;;10.30;5.70;;;;;;;-147.76;100.00;60361.69;5053081;28;20513;-76
2022/09/04 04:44:07;;;;;;;10.30;5.68;;;;;;;-147.76;100.00;60361.69;5052916;28;20083;-76
2022/09/04 04:46:52;;;;;;;10.38;5.80;;;;;;;-147.76;100.00;60361.69;5060546;28;20049;-75
2022/09/04 04:49:30;;;;;;;10.85;5.38;;;;;;;-147.76;100.00;60361.69;5115451;28;20044;-76
2022/09/04 04:52:14;;;;;;;10.40;5.18;;;;;;;-147.76;100.00;60361.69;5115710;27;20063;-75
2022/09/04 04:55:04;;;;;;;11.70;6.20;;;;;;;-147.76;100.00;60361.69;5114433;27;20067;-76
2022/09/04 04:57:40;;;;;;;11.18;5.68;;;;;;;-147.76;100.00;60361.69;5114461;27;20040;-72
2022/09/04 05:00:14;;;;;;;10.73;5.78;;;;;;;-147.76;100.00;60361.69;5114945;28;20066;-76
2022/09/04 05:02:51;;;;;;;10.50;5.60;;;;;;;-147.76;100.00;60361.69;5114542;28;20059;-76
2022/09/04 05:05:40;;;;;;;10.63;5.75;;;;;;;-147.76;100.00;60361.69;5115061;28;20123;-76
2022/09/04 05:08:16;;;;;;;11.98;6.10;;;;;;;-147.76;100.00;60361.69;5114810;28;20044;-75
2022/09/04 05:10:46;;;;;;;11.20;6.20;;;;;;;-147.76;100.00;60361.69;5115107;28;20040;-75
2022/09/04 05:13:22;;;;;;;11.88;5.97;;;;;;;-147.76;100.00;60361.69;5114306;28;20055;-75
2022/09/04 05:15:57;;;;;;;10.98;5.72;;;;;;;-147.76;100.00;60361.69;5093495;28;20048;-75
2022/09/04 05:18:31;;;;;;;12.13;6.30;;;;;;;-147.76;100.00;60361.69;5093555;28;20044;-74
2022/09/04 05:21:05;;;;;;;11.90;6.70;;;;;;;-147.76;100.00;60361.69;5093751;28;20047;-75
2022/09/04 05:23:37;;;;;;;11.77;6.07;;;;;;;-147.76;100.00;60361.69;5093847;28;20054;-76
2022/09/04 05:26:11;;;;;;;13.05;6.55;;;;;;;-147.76;100.00;60361.69;5094018;28;20374;-75
2022/09/04 05:28:48;;;;;;;12.45;6.20;;;;;;;-147.76;100.00;60361.69;5094333;28;20413;-72
2022/09/04 05:31:24;;;;;;;11.10;5.43;;;;;;;-147.76;100.00;60361.69;5092919;28;20417;-70
2022/09/04 05:33:58;;;;;;;11.57;6.22;;;;;;;-147.76;100.00;60361.69;5094983;28;20093;-72
2022/09/04 05:36:35;;;;;;;12.77;6.25;;;;;;;-147.76;100.00;60361.69;5093426;28;20048;-74
2022/09/04 05:39:08;;;;;;;11.95;6.18;;;;;;;-147.76;100.00;60361.69;5102130;28;20055;-69
2022/09/04 05:41:43;;;;;;;12.75;6.50;;;;;;;-147.76;100.00;60361.69;5093430;28;20048;-71
2022/09/04 05:44:26;;;;;;;13.20;6.70;;;;;;;-147.76;100.00;60361.69;5093869;28;20074;-69
2022/09/04 05:47:05;;;;;;;12.90;6.90;;;;;;;-147.76;100.00;60361.69;5113002;28;20550;-71
2022/09/04 05:49:46;;;;;;;13.07;6.65;;;;;;;-147.76;100.00;60361.69;5128569;27;20508;-73
2022/09/04 05:52:38;;;;;;;11.43;6.30;;;;;;;-147.76;100.00;60361.69;5133942;27;20069;-72
2022/09/04 05:55:21;;;;;;;11.38;5.90;;;;;;;-147.76;100.00;60361.69;5127268;27;20047;-69
2022/09/04 05:57:58;;;;;;;11.65;6.22;;;;;;;-147.76;100.00;60361.69;5133970;27;20040;-70
2022/09/04 06:00:27;;;;;;;11.73;6.25;;;;;;;-147.76;100.00;60361.69;5133701;27;20054;-70
2022/09/04 06:03:28;;;;;;;11.43;6.20;;;;;;;-147.76;100.00;60361.69;5133928;27;20043;-70
2022/09/04 06:06:06;;;;;;;13.68;7.15;;;;;;;-147.76;100.00;60361.69;5136006;27;20104;-72
2022/09/04 06:09:10;;;;;;;12.95;7.13;;;;;;;-147.76;100.00;60361.69;5139535;27;20050;-72
2022/09/04 06:11:57;;;;;;;13.52;7.28;;;;;;;-147.76;100.00;60361.69;5074368;28;20056;-76
2022/09/04 06:14:53;;;;;;;13.30;7.43;;;;;;;-147.76;100.00;60361.69;5074577;28;20493;-70
2022/09/04 06:17:34;;;;;;;13.93;7.47;;;;;;;-147.76;100.00;60361.69;5033385;28;20529;-69
2022/09/04 06:20:21;;;;;;;13.65;7.60;;;;;;;-147.76;100.00;60361.69;5035548;28;20120;-71
2022/09/04 06:23:02;;;;;;;17.35;8.57;;;;;;;-147.76;100.00;60361.69;5035343;28;20053;-71
2022/09/04 06:25:44;;;;;;;14.35;8.48;;;;;;;-147.76;100.00;60361.69;5034934;28;20462;-70
2022/09/04 06:28:24;;;;;;;15.77;9.25;;;;;;;-147.76;100.00;60361.69;5034700;28;20466;-72
2022/09/04 06:30:58;;;;;;;15.32;8.88;;;;;;;-147.76;100.00;60361.69;5035037;28;20052;-72
2022/09/04 06:33:50;;;;;;;16.83;8.85;;;;;;;-147.76;100.00;60361.69;5035064;28;20550;-70
2022/09/04 06:36:39;;;;;;;13.80;8.40;;;;;;;-147.76;100.00;60361.69;5034473;28;20045;-74
2022/09/04 06:39:42;;;;;;;16.92;8.30;;;;;;;-147.76;100.00;60361.69;5044718;28;20049;-73
2022/09/04 06:42:26;;;;;;;17.38;8.82;;;;;;;-147.76;100.00;60361.69;5041605;28;20053;-73
2022/09/04 06:45:12;;;;;;;17.60;8.75;;;;;;;-147.76;100.00;60361.69;5053725;28;20056;-70
2022/09/04 06:47:49;;;;;;;14.43;9.10;;;;;;;-147.76;100.00;60361.69;5095491;28;20052;-75
2022/09/04 06:50:23;;;;;;;15.45;8.60;;;;;;;-147.76;100.00;60361.69;5125248;27;20308;-75
2022/09/04 06:53:04;;;;;;;15.70;9.00;;;;;;;-147.76;100.00;60361.69;5137661;27;20053;-70
2022/09/04 06:55:37;;;;;;;14.15;8.50;;;;;;;-147.76;100.00;60361.69;5137426;27;20042;-70
2022/09/04 06:58:36;;;;;;;16.15;9.20;;;;;;;-147.76;100.00;60361.69;5137387;27;20044;-76
2022/09/04 07:01:08;;;;;;;19.65;9.65;;;;;;;-147.76;100.00;60361.69;5137163;27;20047;-76
2022/09/04 07:03:46;;;;;;;15.30;9.10;;;;;;;-147.76;100.00;60361.69;5137067;27;20453;-76
2022/09/04 07:06:19;;;;;;;19.85;9.15;;;;;;;-147.76;100.00;60361.69;5136700;27;20051;-74
2022/09/04 07:09:00;;;;;;;21.25;8.25;;;;;;;-147.76;100.00;60361.69;5137500;27;20045;-70
2022/09/04 07:11:44;;;;;;;16.52;8.38;;;;;;;-147.76;100.00;60361.69;5136397;27;20047;-75
2022/09/04 07:14:42;;;;;;;17.48;8.20;;;;;;;-147.76;100.00;60361.69;5137239;27;20519;-75
2022/09/04 07:17:17;;;;;;;14.65;7.68;;;;;;;-147.76;100.00;60361.69;5110736;27;20382;-71
2022/09/04 07:20:02;;;;;;;14.18;7.30;;;;;;;-147.76;100.00;60361.69;5116248;28;20039;-72
2022/09/04 07:22:51;;;;;;;14.50;7.13;;;;;;;-147.76;100.00;60361.69;5117777;28;20048;-71
2022/09/04 07:25:25;;;;;;;14.52;6.88;;;;;;;-147.76;100.00;60361.69;5116894;28;20040;-70
2022/09/04 07:28:15;;;;;;;12.32;6.25;;;;;;;-147.76;100.00;60361.69;5117048;28;20048;-76
2022/09/04 07:30:46;;;;;;;13.10;5.80;;;;;;;-147.76;100.00;60361.69;5116663;28;20039;-73
2022/09/04 07:33:20;;;;;;;10.50;4.80;;;;;;;-147.76;100.00;60361.69;5117100;28;20447;-73
2022/09/04 07:35:53;;;;;;;12.13;4.70;;;;;;;-147.76;100.00;60361.69;5115718;28;20051;-75
2022/09/04 07:38:29;;;;;;;12.55;5.30;;;;;;;-147.76;100.00;60361.69;5115431;28;20448;-72
2022/09/04 07:41:01;;;;;;;11.32;4.90;;;;;;;-147.76;100.00;60361.69;5115555;28;20047;-70
2022/09/04 07:43:34;;;;;;;10.38;4.15;;;;;;;-147.76;100.00;60361.69;5116070;27;20100;-70
2022/09/04 07:46:05;;;;;;;9.45;4.03;;;;;;;-147.76;100.00;60361.69;5116243;27;20055;-76
2022/09/04 07:48:37;;;;;;;7.90;3.83;;;;;;;-147.76;100.00;60361.69;5117049;28;20039;-70
2022/09/04 07:51:08;;;;;;;7.80;3.78;;;;;;;-147.76;100.00;60361.69;5121043;27;20035;-76
2022/09/04 07:53:59;;;;;;;6.57;3.38;;;;;;;-147.76;100.00;60361.69;5136029;27;20046;-70
2022/09/04 07:56:35;;;;;;;7.32;2.92;;;;;;;-147.76;100.00;60361.69;5135586;27;20039;-70
2022/09/04 07:59:32;;;;;;;6.60;3.08;;;;;;;-147.76;100.00;60361.69;5135785;27;20054;-76
2022/09/04 08:02:19;;;;;;;6.90;2.78;;;;;;;-147.76;100.00;60361.69;5122430;27;20444;-76
2022/09/04 08:05:17;;;;;;;6.43;2.88;;;;;;;-147.76;100.00;60361.69;5136590;27;20096;-75
2022/09/04 08:08:02;;;;;;;6.95;2.75;;;;;;;-147.76;100.00;60361.69;5133436;27;20058;-71
2022/09/04 08:10:31;;;;;;;7.10;2.67;;;;;;;-147.76;100.00;60361.69;5136993;27;20051;-73
2022/09/04 08:13:17;;;;;;;7.63;3.00;;;;;;;-147.76;100.00;60361.69;5135202;27;20055;-76
2022/09/04 08:15:51;;;;;;;5.72;2.42;;;;;;;-147.76;100.00;60361.69;5135347;27;20043;-77
2022/09/04 08:18:42;;;;;;;3.75;2.30;;;;;;;-147.76;100.00;60361.69;5094832;28;20054;-73
2022/09/04 08:21:18;;;;;;;4.13;2.33;;;;;;;-147.76;100.00;60361.69;5094390;28;20051;-72
2022/09/04 08:24:00;;;;;;;;;;;;;;;-147.76;100.00;60361.69;5095043;28;20068;-76
2022/09/04 08:26:36;;;;;;;5.80;3.15;;;;;;;-147.76;100.00;60361.69;5095361;28;19920;-75
2022/09/04 08:29:15;;;;;;;4.20;2.40;;;;;;;-147.76;100.00;60361.69;5095355;28;20048;-75
2022/09/04 08:31:43;;;;;;;4.05;2.28;;;;;;;-147.76;100.00;60361.69;5094387;28;20047;-71
2022/09/04 08:34:39;;;;;;;5.03;2.38;;;;;;;-147.76;100.00;60361.69;5094153;28;20484;-70
2022/09/04 08:37:17;;;;;;;3.05;2.15;;;;;;;-147.76;100.00;60361.69;5012085;28;20065;-74
2022/09/04 08:39:49;;;;;;;4.32;2.30;;;;;;;-147.76;100.00;60361.69;5025918;28;20084;-76
2022/09/04 08:42:52;;;;;;;5.70;2.33;;;;;;;-147.76;100.00;60361.69;5032304;28;20411;-76
2022/09/04 08:45:38;;;;;;;4.72;2.50;;;;;;;-147.76;100.00;60361.69;5032868;28;20045;-76
2022/09/04 08:48:45;;;;;;;4.60;2.20;;;;;;;-147.76;100.00;60361.69;5032551;28;20053;-76
2022/09/04 08:51:33;;;;;;;5.50;2.47;;;;;;;-147.76;100.00;60361.69;5033505;28;20072;-76
2022/09/04 08:54:35;;;;;;;6.40;2.88;;;;;;;-147.76;100.00;60361.69;5032187;28;20064;-75
2022/09/04 08:57:27;;;;;;;7.35;2.70;;;;;;;-147.76;100.00;60361.69;5031649;28;20050;-75
2022/09/04 09:00:10;;;;;;;6.35;2.60;;;;;;;-147.76;100.00;60361.69;5029811;28;20447;-76
2022/09/04 09:03:20;;;;;;;5.13;2.60;;;;;;;-147.76;100.00;60361.69;5029680;28;20061;-75
2022/09/04 09:06:44;;;;;;;8.45;2.80;;;;;;;-147.76;100.00;60361.69;5031267;28;20056;-76
2022/09/04 09:09:41;;;;;;;6.72;3.10;;;;;;;-147.76;100.00;60361.69;4896656;29;20056;-76
2022/09/04 09:12:43;;;;;;;6.82;3.00;;;;;;;-147.76;100.00;60361.69;4896204;29;20064;-76
2022/09/04 09:15:56;;;;;;;5.68;2.65;;;;;;;-147.76;100.00;60361.69;4984753;28;20055;-69
2022/09/04 09:18:36;;;;;;;6.65;2.90;;;;;;;-147.76;100.00;60361.69;4985571;28;20124;-76
2022/09/04 09:21:09;;;;;;;5.80;2.80;;;;;;;-147.76;100.00;60361.69;4991862;28;20355;-75
2022/09/04 09:23:47;;;;;;;5.57;2.58;;;;;;;-147.76;100.00;60361.69;4991682;28;20070;-75
2022/09/04 09:26:29;;;;;;;8.18;2.92;;;;;;;-147.76;100.00;60361.69;4992307;28;20062;-76
2022/09/04 09:29:30;;;;;;;6.60;2.80;;;;;;;-147.76;100.00;60361.69;4992109;28;20116;-76
2022/09/04 09:32:34;;;;;;;5.88;3.42;;;;;;;-147.76;100.00;60361.69;4992898;28;20112;-73
2022/09/04 09:36:01;;;;;;;5.00;2.72;;;;;;;-147.76;100.00;60361.69;4992090;28;20089;-71
2022/09/04 09:38:52;;;;;;;7.20;2.70;;;;;;;-147.76;100.00;60361.69;4991336;28;20058;-70
2022/09/04 09:41:52;;;;;;;5.57;2.63;;;;;;;-147.76;100.00;60361.69;4992662;28;20352;-75
2022/09/04 09:44:45;;;;;;;6.25;2.80;;;;;;;-147.76;100.00;60361.69;5068471;28;20059;-70
2022/09/04 09:47:39;;;;;;;6.68;2.83;;;;;;;-147.76;100.00;60361.69;5075468;28;20496;-75
2022/09/04 09:50:32;;;;;;;5.72;2.67;;;;;;;-147.76;100.00;60361.69;5075773;28;20055;-76
2022/09/04 09:53:29;;;;;;;7.28;2.70;;;;;;;-147.76;100.00;60361.69;5075540;28;20052;-75
2022/09/04 09:56:19;;;;;;;4.93;2.50;;;;;;;-147.76;100.00;60361.69;5096445;28;20409;-76
2022/09/04 09:59:23;;;;;;;5.55;2.50;;;;;;;-147.76;100.00;60361.69;5094917;28;20097;-76
2022/09/04 10:02:16;;;;;;;5.30;2.50;;;;;;;-147.76;100.00;60361.69;5035388;28;20061;-73
2022/09/04 10:05:12;;;;;;;5.55;2.50;;;;;;;-147.76;100.00;60361.69;5027009;28;20458;-76
2022/09/04 10:07:59;;;;;;;6.13;2.50;;;;;;;-147.76;100.00;60361.69;5034517;28;20057;-76
2022/09/04 10:10:46;;;;;;;3.50;2.10;;;;;;;-147.76;100.00;60361.69;5036341;28;20052;-77
2022/09/04 10:13:36;;;;;;;5.40;2.30;;;;;;;-147.76;100.00;60361.69;5034998;28;20569;-76
2022/09/04 10:16:29;;;;;;;5.90;2.33;;;;;;;-147.76;100.00;60361.69;5035651;28;20518;-70
2022/09/04 10:19:21;;;;;;;3.53;2.30;;;;;;;-147.76;100.00;60361.69;5023393;28;20078;-71
2022/09/04 10:22:07;;;;;;;4.57;2.50;;;;;;;-147.76;100.00;60361.69;5015764;28;20045;-71
2022/09/04 10:25:01;;;;;;;5.53;2.50;;;;;;;-147.76;100.00;60361.69;5027015;28;20448;-69
2022/09/04 10:27:57;;;;;;;6.40;2.42;;;;;;;-147.76;100.00;60361.69;5034988;28;20041;-70
2022/09/04 10:30:25;;;;;;;3.97;2.30;;;;;;;-147.76;100.00;60361.69;4975646;28;20432;-70
2022/09/04 10:33:11;;;;;;;3.22;2.10;;;;;;;-147.76;100.00;60361.69;4975434;28;20062;-70
2022/09/04 10:35:54;;;;;;;7.13;2.53;;;;;;;-147.76;100.00;60361.69;4975284;28;20059;-71
2022/09/04 10:40:34;;;;;;;4.22;2.30;;;;;;;-147.76;100.00;60361.69;4991070;28;20052;-68
2022/09/04 10:41:43;;;;;;;3.72;2.10;;;;;;;-147.76;100.00;60361.69;5054004;28;20060;-72
2022/09/04 10:44:42;;;;;;;5.05;2.58;;;;;;;-147.76;100.00;60361.69;5054337;28;20065;-69
2022/09/04 10:47:19;;;;;;;5.38;2.38;;;;;;;-147.76;100.00;60361.69;5055603;28;20063;-69
2022/09/04 10:50:02;;;;;;;4.55;2.30;;;;;;;-147.76;100.00;60361.69;5055273;28;20103;-74
2022/09/04 10:52:40;;;;;;;4.60;2.38;;;;;;;-147.76;100.00;60361.69;5054227;28;20059;-71
2022/09/04 10:55:26;;;;;;;5.10;2.42;;;;;;;-147.76;100.00;60361.69;5071161;28;20071;-72
2022/09/04 10:58:15;;;;;;;4.22;2.42;;;;;;;-147.76;100.00;60361.69;5075160;28;20059;-69
2022/09/04 11:00:54;;;;;;;4.30;2.10;;;;;;;-147.76;100.00;60361.69;5071531;28;20052;-71
2022/09/04 11:03:31;;;;;;;3.88;2.13;;;;;;;-147.76;100.00;60361.69;5074444;28;20052;-75
2022/09/04 11:06:11;;;;;;;4.18;2.22;;;;;;;-147.76;100.00;60361.69;5074304;28;20044;-73
2022/09/04 11:09:01;;;;;;;5.28;2.33;;;;;;;-147.76;100.00;60361.69;5137962;27;20396;-74
2022/09/04 11:11:53;;;;;;;3.92;2.20;;;;;;;-147.76;100.00;60361.69;5137426;27;20453;-70
2022/09/04 11:14:43;;;;;;;4.22;2.40;;;;;;;-147.76;100.00;60361.69;5136700;27;20043;-75
2022/09/04 11:18:02;;;;;;;4.15;2.40;;;;;;;-147.76;100.00;60361.69;5138296;27;20054;-71
2022/09/04 11:21:04;;;;;;;3.40;2.13;;;;;;;-147.76;100.00;60361.69;5053635;28;20430;-75
2022/09/04 11:23:55;;;;;;;4.88;2.40;;;;;;;-147.76;100.00;60361.69;5053487;28;20052;-70
2022/09/04 11:26:56;;;;;;;3.70;2.20;;;;;;;-147.76;100.00;60361.69;5041758;28;20084;-75
2022/09/04 11:29:42;;;;;;;5.05;2.30;;;;;;;-147.76;100.00;60361.69;5007918;28;20120;-70
2022/09/04 11:32:20;;;;;;;4.80;2.08;;;;;;;-147.76;100.00;60361.69;5013480;28;20080;-69
2022/09/04 11:35:18;;;;;;;3.72;2.20;;;;;;;-147.76;100.00;60361.69;5012776;28;20042;-69
2022/09/04 11:37:59;;;;;;;4.15;2.30;;;;;;;-147.76;100.00;60361.69;5013232;28;20133;-75
2022/09/04 11:41:10;;;;;;;4.03;2.33;;;;;;;-147.76;100.00;60361.69;5006058;28;20068;-75
2022/09/04 11:43:59;;;;;;;4.70;2.40;;;;;;;-147.76;100.00;60361.69;5013627;28;20050;-72
2022/09/04 11:46:39;;;;;;;3.95;2.20;;;;;;;-147.76;100.00;60361.69;4998381;28;20057;-70
2022/09/04 11:49:36;;;;;;;4.05;2.10;;;;;;;-147.76;100.00;60361.69;5014535;28;20057;-71
2022/09/04 11:52:16;;;;;;;5.88;2.47;;;;;;;-147.76;100.00;60361.69;5043233;28;20143;-75
2022/09/04 11:55:00;;;;;;;4.90;2.20;;;;;;;-147.76;100.00;60361.69;5066794;28;20057;-71
2022/09/04 11:57:40;;;;;;;5.88;2.30;;;;;;;-147.76;100.00;60361.69;5073139;28;20052;-72
2022/09/04 12:00:11;;;;;;;3.67;2.17;;;;;;;-147.76;100.00;60361.69;5073210;28;20060;-69
2022/09/04 12:03:08;;;;;;;3.08;2.10;;;;;;;-147.76;100.00;60361.69;5073445;28;20056;-73
2022/09/04 12:05:49;;;;;;;3.67;2.20;;;;;;;-147.76;100.00;60361.69;5075698;27;20052;-72
2022/09/04 12:08:34;;;;;;;5.60;3.08;;;;;;;-147.76;100.00;60361.69;5136059;27;20398;-76
2022/09/04 12:11:15;;;;;;;4.07;2.13;;;;;;;-147.76;100.00;60361.69;5135751;27;20047;-71
2022/09/04 12:14:08;;;;;;;4.15;2.20;;;;;;;-147.76;100.00;60361.69;5135753;27;20096;-75